sensor_id;sensor_type;location;lat;lon;timestamp;P1;durP1;ratioP1;P2;durP2;ratioP2
56429;SDS011;42332;52.136;20.666;2023-07-31T00:02:22;3.70;;;1.35;;
56429;SDS011;42332;52.136;20.666;2023-07-31T00:04:47;3.30;;;1.40;;
56429;SDS011;42332;52.136;20.666;2023-07-31T00:07:14;3.45;;;1.48;;
56429;SDS011;42332;52.136;20.666;2023-07-31T00:09:39;3.70;;;1.73;;
56429;SDS011;42332;52.136;20.666;2023-07-31T00:12:04;4.43;;;1.70;;
56429;SDS011;42332;52.136;20.666;2023-07-31T00:14:30;4.43;;;1.77;;
56429;SDS011;42332;52.136;20.666;2023-07-31T00:16:55;8.05;;;1.65;;
56429;SDS011;42332;52.136;20.666;2023-07-31T00:19:21;6.70;;;1.58;;
56429;SDS011;42332;52.136;20.666;2023-07-31T00:21:46;4.85;;;1.60;;
56429;SDS011;42332;52.136;20.666;2023-07-31T00:24:11;4.82;;;1.92;;
56429;SDS011;42332;52.136;20.666;2023-07-31T00:26:36;8.05;;;1.80;;
56429;SDS011;42332;52.136;20.666;2023-07-31T00:29:02;5.20;;;1.83;;
56429;SDS011;42332;52.136;20.666;2023-07-31T00:31:27;6.30;;;1.85;;
56429;SDS011;42332;52.136;20.666;2023-07-31T00:33:53;3.47;;;1.48;;
56429;SDS011;42332;52.136;20.666;2023-07-31T00:36:18;4.65;;;1.85;;
56429;SDS011;42332;52.136;20.666;2023-07-31T00:38:43;3.63;;;1.55;;
56429;SDS011;42332;52.136;20.666;2023-07-31T00:41:09;4.40;;;1.70;;
56429;SDS011;42332;52.136;20.666;2023-07-31T00:43:34;5.00;;;1.73;;
56429;SDS011;42332;52.136;20.666;2023-07-31T00:45:59;3.83;;;1.70;;
56429;SDS011;42332;52.136;20.666;2023-07-31T00:48:25;4.95;;;1.98;;
56429;SDS011;42332;52.136;20.666;2023-07-31T00:50:50;6.43;;;2.13;;
56429;SDS011;42332;52.136;20.666;2023-07-31T00:53:16;4.95;;;1.77;;
56429;SDS011;42332;52.136;20.666;2023-07-31T00:55:42;3.90;;;1.70;;
56429;SDS011;42332;52.136;20.666;2023-07-31T00:58:07;3.95;;;1.60;;
56429;SDS011;42332;52.136;20.666;2023-07-31T01:00:33;4.00;;;1.77;;
56429;SDS011;42332;52.136;20.666;2023-07-31T01:02:58;5.28;;;2.05;;
56429;SDS011;42332;52.136;20.666;2023-07-31T01:05:25;3.95;;;1.77;;
56429;SDS011;42332;52.136;20.666;2023-07-31T01:08:03;5.00;;;1.88;;
56429;SDS011;42332;52.136;20.666;2023-07-31T01:10:30;3.58;;;1.65;;
56429;SDS011;42332;52.136;20.666;2023-07-31T01:13:01;8.35;;;1.70;;
56429;SDS011;42332;52.136;20.666;2023-07-31T01:15:28;7.10;;;2.35;;
56429;SDS011;42332;52.136;20.666;2023-07-31T01:17:53;4.30;;;1.75;;
56429;SDS011;42332;52.136;20.666;2023-07-31T01:20:22;3.47;;;1.75;;
56429;SDS011;42332;52.136;20.666;2023-07-31T01:28:10;5.63;;;2.00;;
56429;SDS011;42332;52.136;20.666;2023-07-31T01:30:41;5.43;;;1.80;;
56429;SDS011;42332;52.136;20.666;2023-07-31T01:33:08;7.93;;;2.10;;
56429;SDS011;42332;52.136;20.666;2023-07-31T01:35:34;5.13;;;1.75;;
56429;SDS011;42332;52.136;20.666;2023-07-31T01:38:00;4.03;;;1.80;;
56429;SDS011;42332;52.136;20.666;2023-07-31T01:40:25;8.75;;;1.95;;
56429;SDS011;42332;52.136;20.666;2023-07-31T01:42:50;4.72;;;2.13;;
56429;SDS011;42332;52.136;20.666;2023-07-31T01:45:16;6.75;;;2.20;;
56429;SDS011;42332;52.136;20.666;2023-07-31T01:47:41;7.95;;;2.17;;
56429;SDS011;42332;52.136;20.666;2023-07-31T01:50:07;4.82;;;2.20;;
56429;SDS011;42332;52.136;20.666;2023-07-31T01:52:32;8.13;;;2.78;;
56429;SDS011;42332;52.136;20.666;2023-07-31T01:54:57;7.25;;;2.22;;
56429;SDS011;42332;52.136;20.666;2023-07-31T01:57:23;7.82;;;2.20;;
56429;SDS011;42332;52.136;20.666;2023-07-31T01:59:48;5.35;;;2.60;;
56429;SDS011;42332;52.136;20.666;2023-07-31T02:02:14;5.20;;;2.15;;
56429;SDS011;42332;52.136;20.666;2023-07-31T02:04:39;4.57;;;2.03;;
56429;SDS011;42332;52.136;20.666;2023-07-31T02:07:05;6.47;;;2.50;;
56429;SDS011;42332;52.136;20.666;2023-07-31T02:09:31;5.35;;;2.50;;
56429;SDS011;42332;52.136;20.666;2023-07-31T02:11:56;4.63;;;2.00;;
56429;SDS011;42332;52.136;20.666;2023-07-31T02:14:21;5.68;;;2.53;;
56429;SDS011;42332;52.136;20.666;2023-07-31T02:16:47;5.55;;;2.13;;
56429;SDS011;42332;52.136;20.666;2023-07-31T02:19:12;3.70;;;1.88;;
56429;SDS011;42332;52.136;20.666;2023-07-31T02:21:37;8.68;;;2.67;;
56429;SDS011;42332;52.136;20.666;2023-07-31T02:24:03;6.38;;;2.55;;
56429;SDS011;42332;52.136;20.666;2023-07-31T02:26:28;6.10;;;2.80;;
56429;SDS011;42332;52.136;20.666;2023-07-31T02:28:54;7.47;;;2.28;;
56429;SDS011;42332;52.136;20.666;2023-07-31T02:31:19;7.85;;;2.30;;
56429;SDS011;42332;52.136;20.666;2023-07-31T02:33:44;6.15;;;2.50;;
56429;SDS011;42332;52.136;20.666;2023-07-31T02:36:10;6.03;;;2.60;;
56429;SDS011;42332;52.136;20.666;2023-07-31T02:38:35;11.30;;;2.75;;
56429;SDS011;42332;52.136;20.666;2023-07-31T02:41:01;5.32;;;2.40;;
56429;SDS011;42332;52.136;20.666;2023-07-31T02:43:26;6.70;;;2.78;;
56429;SDS011;42332;52.136;20.666;2023-07-31T02:45:52;10.23;;;2.95;;
56429;SDS011;42332;52.136;20.666;2023-07-31T02:48:17;5.38;;;2.65;;
56429;SDS011;42332;52.136;20.666;2023-07-31T02:50:43;5.70;;;2.40;;
56429;SDS011;42332;52.136;20.666;2023-07-31T02:53:08;6.47;;;2.38;;
56429;SDS011;42332;52.136;20.666;2023-07-31T02:55:33;5.25;;;2.42;;
56429;SDS011;42332;52.136;20.666;2023-07-31T02:57:59;10.07;;;2.40;;
56429;SDS011;42332;52.136;20.666;2023-07-31T03:00:24;6.20;;;2.40;;
56429;SDS011;42332;52.136;20.666;2023-07-31T03:02:49;5.72;;;2.58;;
56429;SDS011;42332;52.136;20.666;2023-07-31T03:05:15;5.40;;;2.42;;
56429;SDS011;42332;52.136;20.666;2023-07-31T03:07:40;7.35;;;2.55;;
56429;SDS011;42332;52.136;20.666;2023-07-31T03:10:06;12.43;;;2.75;;
56429;SDS011;42332;52.136;20.666;2023-07-31T03:12:31;6.65;;;2.65;;
56429;SDS011;42332;52.136;20.666;2023-07-31T03:14:57;5.05;;;2.13;;
56429;SDS011;42332;52.136;20.666;2023-07-31T03:17:22;4.70;;;2.20;;
56429;SDS011;42332;52.136;20.666;2023-07-31T03:19:47;5.20;;;2.10;;
56429;SDS011;42332;52.136;20.666;2023-07-31T03:22:12;8.85;;;2.50;;
56429;SDS011;42332;52.136;20.666;2023-07-31T03:24:38;7.20;;;2.78;;
56429;SDS011;42332;52.136;20.666;2023-07-31T03:27:03;5.22;;;2.35;;
56429;SDS011;42332;52.136;20.666;2023-07-31T03:29:29;6.40;;;2.22;;
56429;SDS011;42332;52.136;20.666;2023-07-31T03:31:54;5.53;;;2.35;;
56429;SDS011;42332;52.136;20.666;2023-07-31T03:34:20;4.53;;;2.15;;
56429;SDS011;42332;52.136;20.666;2023-07-31T03:36:45;5.18;;;1.98;;
56429;SDS011;42332;52.136;20.666;2023-07-31T03:39:10;5.72;;;2.17;;
56429;SDS011;42332;52.136;20.666;2023-07-31T03:41:36;5.15;;;2.13;;
56429;SDS011;42332;52.136;20.666;2023-07-31T03:44:01;10.18;;;2.28;;
56429;SDS011;42332;52.136;20.666;2023-07-31T03:46:26;5.10;;;2.20;;
56429;SDS011;42332;52.136;20.666;2023-07-31T03:48:52;6.68;;;2.50;;
56429;SDS011;42332;52.136;20.666;2023-07-31T03:51:17;5.63;;;2.15;;
56429;SDS011;42332;52.136;20.666;2023-07-31T03:53:43;6.43;;;2.40;;
56429;SDS011;42332;52.136;20.666;2023-07-31T03:56:08;6.53;;;2.38;;
56429;SDS011;42332;52.136;20.666;2023-07-31T03:58:34;5.30;;;2.40;;
56429;SDS011;42332;52.136;20.666;2023-07-31T04:01:00;4.82;;;2.15;;
56429;SDS011;42332;52.136;20.666;2023-07-31T04:03:26;5.10;;;2.10;;
56429;SDS011;42332;52.136;20.666;2023-07-31T04:05:53;7.32;;;1.98;;
56429;SDS011;42332;52.136;20.666;2023-07-31T04:08:19;5.20;;;2.15;;
56429;SDS011;42332;52.136;20.666;2023-07-31T04:10:44;4.97;;;2.00;;
56429;SDS011;42332;52.136;20.666;2023-07-31T04:13:09;6.93;;;2.00;;
56429;SDS011;42332;52.136;20.666;2023-07-31T04:15:35;5.78;;;2.20;;
56429;SDS011;42332;52.136;20.666;2023-07-31T04:18:00;7.80;;;2.58;;
56429;SDS011;42332;52.136;20.666;2023-07-31T04:20:25;6.47;;;2.60;;
56429;SDS011;42332;52.136;20.666;2023-07-31T04:22:51;5.20;;;2.08;;
56429;SDS011;42332;52.136;20.666;2023-07-31T04:25:16;6.80;;;2.42;;
56429;SDS011;42332;52.136;20.666;2023-07-31T04:27:41;9.10;;;2.33;;
56429;SDS011;42332;52.136;20.666;2023-07-31T04:30:07;7.63;;;2.40;;
56429;SDS011;42332;52.136;20.666;2023-07-31T04:32:32;6.03;;;3.72;;
56429;SDS011;42332;52.136;20.666;2023-07-31T04:34:58;6.07;;;2.20;;
56429;SDS011;42332;52.136;20.666;2023-07-31T04:37:23;4.97;;;1.83;;
56429;SDS011;42332;52.136;20.666;2023-07-31T04:39:49;6.60;;;2.00;;
56429;SDS011;42332;52.136;20.666;2023-07-31T04:42:14;6.32;;;2.33;;
56429;SDS011;42332;52.136;20.666;2023-07-31T04:44:39;6.13;;;2.10;;
56429;SDS011;42332;52.136;20.666;2023-07-31T04:47:05;4.88;;;2.20;;
56429;SDS011;42332;52.136;20.666;2023-07-31T04:49:31;4.18;;;1.88;;
56429;SDS011;42332;52.136;20.666;2023-07-31T04:51:57;5.30;;;1.88;;
56429;SDS011;42332;52.136;20.666;2023-07-31T04:54:22;5.43;;;1.98;;
56429;SDS011;42332;52.136;20.666;2023-07-31T04:56:47;7.93;;;2.15;;
56429;SDS011;42332;52.136;20.666;2023-07-31T04:59:12;8.80;;;2.00;;
56429;SDS011;42332;52.136;20.666;2023-07-31T05:01:38;4.45;;;1.63;;
56429;SDS011;42332;52.136;20.666;2023-07-31T05:04:03;10.63;;;2.58;;
56429;SDS011;42332;52.136;20.666;2023-07-31T05:06:28;6.07;;;1.90;;
56429;SDS011;42332;52.136;20.666;2023-07-31T05:08:54;5.93;;;2.10;;
56429;SDS011;42332;52.136;20.666;2023-07-31T05:11:19;5.85;;;2.50;;
56429;SDS011;42332;52.136;20.666;2023-07-31T05:13:44;6.68;;;2.40;;
56429;SDS011;42332;52.136;20.666;2023-07-31T05:16:10;8.10;;;2.33;;
56429;SDS011;42332;52.136;20.666;2023-07-31T05:18:35;8.75;;;2.33;;
56429;SDS011;42332;52.136;20.666;2023-07-31T05:21:01;6.20;;;2.15;;
56429;SDS011;42332;52.136;20.666;2023-07-31T05:23:26;5.22;;;2.15;;
56429;SDS011;42332;52.136;20.666;2023-07-31T05:25:51;5.55;;;2.40;;
56429;SDS011;42332;52.136;20.666;2023-07-31T05:28:17;7.15;;;2.35;;
56429;SDS011;42332;52.136;20.666;2023-07-31T05:30:42;4.90;;;2.10;;
56429;SDS011;42332;52.136;20.666;2023-07-31T05:33:07;5.70;;;2.17;;
56429;SDS011;42332;52.136;20.666;2023-07-31T05:35:33;6.88;;;2.20;;
56429;SDS011;42332;52.136;20.666;2023-07-31T05:37:58;5.35;;;2.00;;
56429;SDS011;42332;52.136;20.666;2023-07-31T05:40:23;6.90;;;2.03;;
56429;SDS011;42332;52.136;20.666;2023-07-31T05:42:49;4.18;;;1.70;;
56429;SDS011;42332;52.136;20.666;2023-07-31T05:45:14;6.55;;;2.38;;
56429;SDS011;42332;52.136;20.666;2023-07-31T05:47:39;3.97;;;1.65;;
56429;SDS011;42332;52.136;20.666;2023-07-31T05:50:05;9.80;;;1.83;;
56429;SDS011;42332;52.136;20.666;2023-07-31T05:52:30;12.52;;;2.05;;
56429;SDS011;42332;52.136;20.666;2023-07-31T05:54:56;4.93;;;1.70;;
56429;SDS011;42332;52.136;20.666;2023-07-31T05:57:21;9.13;;;2.33;;
56429;SDS011;42332;52.136;20.666;2023-07-31T05:59:47;4.53;;;2.00;;
56429;SDS011;42332;52.136;20.666;2023-07-31T06:02:12;6.43;;;2.15;;
56429;SDS011;42332;52.136;20.666;2023-07-31T06:04:38;6.05;;;2.03;;
56429;SDS011;42332;52.136;20.666;2023-07-31T06:07:03;7.28;;;2.13;;
56429;SDS011;42332;52.136;20.666;2023-07-31T06:09:28;4.97;;;2.20;;
56429;SDS011;42332;52.136;20.666;2023-07-31T06:11:54;5.72;;;2.40;;
56429;SDS011;42332;52.136;20.666;2023-07-31T06:14:19;8.52;;;2.22;;
56429;SDS011;42332;52.136;20.666;2023-07-31T06:16:44;5.95;;;2.40;;
56429;SDS011;42332;52.136;20.666;2023-07-31T06:19:10;6.72;;;2.28;;
56429;SDS011;42332;52.136;20.666;2023-07-31T06:21:35;6.18;;;2.30;;
56429;SDS011;42332;52.136;20.666;2023-07-31T06:24:05;5.03;;;1.85;;
56429;SDS011;42332;52.136;20.666;2023-07-31T06:26:30;4.13;;;1.80;;
56429;SDS011;42332;52.136;20.666;2023-07-31T06:28:56;6.22;;;1.70;;
56429;SDS011;42332;52.136;20.666;2023-07-31T06:31:21;8.30;;;2.15;;
56429;SDS011;42332;52.136;20.666;2023-07-31T06:33:51;6.50;;;2.10;;
56429;SDS011;42332;52.136;20.666;2023-07-31T06:36:16;4.68;;;2.05;;
56429;SDS011;42332;52.136;20.666;2023-07-31T06:38:42;10.07;;;2.45;;
56429;SDS011;42332;52.136;20.666;2023-07-31T06:41:07;6.60;;;1.95;;
56429;SDS011;42332;52.136;20.666;2023-07-31T06:43:33;4.95;;;1.88;;
56429;SDS011;42332;52.136;20.666;2023-07-31T06:45:59;5.85;;;1.95;;
56429;SDS011;42332;52.136;20.666;2023-07-31T06:48:29;6.80;;;2.15;;
56429;SDS011;42332;52.136;20.666;2023-07-31T06:50:54;7.13;;;2.25;;
56429;SDS011;42332;52.136;20.666;2023-07-31T06:53:20;7.28;;;1.92;;
56429;SDS011;42332;52.136;20.666;2023-07-31T06:55:45;6.47;;;2.08;;
56429;SDS011;42332;52.136;20.666;2023-07-31T06:58:10;5.85;;;1.85;;
56429;SDS011;42332;52.136;20.666;2023-07-31T07:00:35;7.35;;;2.60;;
56429;SDS011;42332;52.136;20.666;2023-07-31T07:03:01;4.85;;;2.20;;
56429;SDS011;42332;52.136;20.666;2023-07-31T07:05:26;9.18;;;2.63;;
56429;SDS011;42332;52.136;20.666;2023-07-31T07:07:52;5.22;;;1.98;;
56429;SDS011;42332;52.136;20.666;2023-07-31T07:10:17;5.72;;;1.98;;
56429;SDS011;42332;52.136;20.666;2023-07-31T07:12:42;4.78;;;2.22;;
56429;SDS011;42332;52.136;20.666;2023-07-31T07:15:08;4.95;;;2.05;;
56429;SDS011;42332;52.136;20.666;2023-07-31T07:17:33;13.63;;;2.65;;
56429;SDS011;42332;52.136;20.666;2023-07-31T07:19:59;6.15;;;2.15;;
56429;SDS011;42332;52.136;20.666;2023-07-31T07:22:25;6.97;;;1.88;;
56429;SDS011;42332;52.136;20.666;2023-07-31T07:24:52;5.55;;;1.95;;
56429;SDS011;42332;52.136;20.666;2023-07-31T07:27:17;7.07;;;2.30;;
56429;SDS011;42332;52.136;20.666;2023-07-31T07:29:43;6.93;;;2.20;;
56429;SDS011;42332;52.136;20.666;2023-07-31T07:32:08;9.48;;;2.30;;
56429;SDS011;42332;52.136;20.666;2023-07-31T07:34:33;4.72;;;1.95;;
56429;SDS011;42332;52.136;20.666;2023-07-31T07:36:58;6.47;;;2.17;;
56429;SDS011;42332;52.136;20.666;2023-07-31T07:39:24;7.68;;;2.03;;
56429;SDS011;42332;52.136;20.666;2023-07-31T07:41:50;5.35;;;2.20;;
56429;SDS011;42332;52.136;20.666;2023-07-31T07:44:15;6.55;;;1.90;;
56429;SDS011;42332;52.136;20.666;2023-07-31T07:46:40;9.13;;;2.50;;
56429;SDS011;42332;52.136;20.666;2023-07-31T07:49:06;8.82;;;1.98;;
56429;SDS011;42332;52.136;20.666;2023-07-31T07:51:31;7.93;;;1.92;;
56429;SDS011;42332;52.136;20.666;2023-07-31T07:53:57;6.32;;;3.00;;
56429;SDS011;42332;52.136;20.666;2023-07-31T07:56:23;7.03;;;1.90;;
56429;SDS011;42332;52.136;20.666;2023-07-31T07:58:49;4.22;;;1.50;;
56429;SDS011;42332;52.136;20.666;2023-07-31T08:01:15;4.35;;;1.75;;
56429;SDS011;42332;52.136;20.666;2023-07-31T08:03:40;14.73;;;2.03;;
56429;SDS011;42332;52.136;20.666;2023-07-31T08:06:06;7.18;;;2.10;;
56429;SDS011;42332;52.136;20.666;2023-07-31T08:08:31;7.55;;;2.30;;
56429;SDS011;42332;52.136;20.666;2023-07-31T08:10:56;6.40;;;2.03;;
56429;SDS011;42332;52.136;20.666;2023-07-31T08:13:21;8.40;;;2.40;;
56429;SDS011;42332;52.136;20.666;2023-07-31T08:15:47;7.10;;;1.85;;
56429;SDS011;42332;52.136;20.666;2023-07-31T08:18:12;6.45;;;1.90;;
56429;SDS011;42332;52.136;20.666;2023-07-31T08:20:37;7.05;;;1.98;;
56429;SDS011;42332;52.136;20.666;2023-07-31T08:23:03;4.68;;;1.58;;
56429;SDS011;42332;52.136;20.666;2023-07-31T08:25:29;7.65;;;2.05;;
56429;SDS011;42332;52.136;20.666;2023-07-31T08:27:54;6.13;;;1.80;;
56429;SDS011;42332;52.136;20.666;2023-07-31T08:30:20;3.70;;;1.65;;
56429;SDS011;42332;52.136;20.666;2023-07-31T08:32:46;6.00;;;1.80;;
56429;SDS011;42332;52.136;20.666;2023-07-31T08:35:12;7.78;;;1.77;;
56429;SDS011;42332;52.136;20.666;2023-07-31T08:37:37;5.07;;;1.60;;
56429;SDS011;42332;52.136;20.666;2023-07-31T08:40:03;4.05;;;1.42;;
56429;SDS011;42332;52.136;20.666;2023-07-31T08:42:29;5.78;;;1.80;;
56429;SDS011;42332;52.136;20.666;2023-07-31T08:44:55;9.07;;;1.90;;
56429;SDS011;42332;52.136;20.666;2023-07-31T08:47:21;3.58;;;1.60;;
56429;SDS011;42332;52.136;20.666;2023-07-31T08:49:46;4.18;;;1.35;;
56429;SDS011;42332;52.136;20.666;2023-07-31T08:52:12;6.20;;;1.50;;
56429;SDS011;42332;52.136;20.666;2023-07-31T08:54:38;5.13;;;1.73;;
56429;SDS011;42332;52.136;20.666;2023-07-31T08:57:04;8.38;;;1.85;;
56429;SDS011;42332;52.136;20.666;2023-07-31T08:59:31;6.13;;;1.73;;
56429;SDS011;42332;52.136;20.666;2023-07-31T09:01:57;4.05;;;1.55;;
56429;SDS011;42332;52.136;20.666;2023-07-31T09:04:25;2.22;;;0.80;;
56429;SDS011;42332;52.136;20.666;2023-07-31T09:06:52;7.32;;;3.03;;
56429;SDS011;42332;52.136;20.666;2023-07-31T09:09:22;13.32;;;5.45;;
56429;SDS011;42332;52.136;20.666;2023-07-31T09:11:49;4.95;;;1.60;;
56429;SDS011;42332;52.136;20.666;2023-07-31T09:14:14;3.42;;;1.42;;
56429;SDS011;42332;52.136;20.666;2023-07-31T09:16:56;5.88;;;1.95;;
56429;SDS011;42332;52.136;20.666;2023-07-31T09:19:26;5.07;;;2.00;;
56429;SDS011;42332;52.136;20.666;2023-07-31T09:21:55;6.55;;;2.00;;
56429;SDS011;42332;52.136;20.666;2023-07-31T09:24:30;9.18;;;5.22;;
56429;SDS011;42332;52.136;20.666;2023-07-31T09:26:59;5.10;;;1.88;;
56429;SDS011;42332;52.136;20.666;2023-07-31T09:29:25;5.15;;;1.60;;
56429;SDS011;42332;52.136;20.666;2023-07-31T09:31:52;3.30;;;1.38;;
56429;SDS011;42332;52.136;20.666;2023-07-31T09:34:18;9.85;;;1.70;;
56429;SDS011;42332;52.136;20.666;2023-07-31T09:36:44;3.78;;;1.67;;
56429;SDS011;42332;52.136;20.666;2023-07-31T09:39:15;6.10;;;1.83;;
56429;SDS011;42332;52.136;20.666;2023-07-31T09:41:42;6.05;;;1.38;;
56429;SDS011;42332;52.136;20.666;2023-07-31T09:44:10;3.72;;;1.20;;
56429;SDS011;42332;52.136;20.666;2023-07-31T09:46:35;3.88;;;1.40;;
56429;SDS011;42332;52.136;20.666;2023-07-31T09:49:03;3.35;;;1.40;;
56429;SDS011;42332;52.136;20.666;2023-07-31T09:51:34;3.95;;;1.33;;
56429;SDS011;42332;52.136;20.666;2023-07-31T09:54:03;3.60;;;1.10;;
56429;SDS011;42332;52.136;20.666;2023-07-31T09:56:37;2.97;;;1.00;;
56429;SDS011;42332;52.136;20.666;2023-07-31T09:59:06;3.33;;;1.08;;
56429;SDS011;42332;52.136;20.666;2023-07-31T10:01:32;4.32;;;1.30;;
56429;SDS011;42332;52.136;20.666;2023-07-31T10:03:58;3.97;;;1.17;;
56429;SDS011;42332;52.136;20.666;2023-07-31T10:06:24;3.08;;;1.05;;
56429;SDS011;42332;52.136;20.666;2023-07-31T10:08:50;6.07;;;1.65;;
56429;SDS011;42332;52.136;20.666;2023-07-31T10:11:16;3.28;;;1.25;;
56429;SDS011;42332;52.136;20.666;2023-07-31T10:13:42;4.03;;;0.98;;
56429;SDS011;42332;52.136;20.666;2023-07-31T10:16:07;3.92;;;1.00;;
56429;SDS011;42332;52.136;20.666;2023-07-31T10:18:33;3.17;;;1.08;;
56429;SDS011;42332;52.136;20.666;2023-07-31T10:20:59;7.47;;;1.30;;
56429;SDS011;42332;52.136;20.666;2023-07-31T10:23:25;4.03;;;1.25;;
56429;SDS011;42332;52.136;20.666;2023-07-31T10:25:52;7.88;;;1.20;;
56429;SDS011;42332;52.136;20.666;2023-07-31T10:28:18;5.22;;;0.95;;
56429;SDS011;42332;52.136;20.666;2023-07-31T10:30:44;4.90;;;1.15;;
56429;SDS011;42332;52.136;20.666;2023-07-31T10:33:10;2.63;;;0.98;;
56429;SDS011;42332;52.136;20.666;2023-07-31T10:35:35;3.13;;;1.52;;
56429;SDS011;42332;52.136;20.666;2023-07-31T10:38:10;5.72;;;1.30;;
56429;SDS011;42332;52.136;20.666;2023-07-31T10:40:39;3.10;;;1.10;;
56429;SDS011;42332;52.136;20.666;2023-07-31T10:43:05;4.07;;;1.30;;
56429;SDS011;42332;52.136;20.666;2023-07-31T10:45:39;1.92;;;0.85;;
56429;SDS011;42332;52.136;20.666;2023-07-31T10:50:46;9.80;;;1.25;;
56429;SDS011;42332;52.136;20.666;2023-07-31T10:53:23;7.68;;;1.20;;
56429;SDS011;42332;52.136;20.666;2023-07-31T10:55:50;4.00;;;1.20;;
56429;SDS011;42332;52.136;20.666;2023-07-31T10:58:18;3.83;;;1.10;;
56429;SDS011;42332;52.136;20.666;2023-07-31T11:00:47;4.82;;;1.15;;
56429;SDS011;42332;52.136;20.666;2023-07-31T11:03:16;4.70;;;1.30;;
56429;SDS011;42332;52.136;20.666;2023-07-31T11:08:14;5.22;;;1.35;;
56429;SDS011;42332;52.136;20.666;2023-07-31T11:10:41;5.13;;;1.35;;
56429;SDS011;42332;52.136;20.666;2023-07-31T11:13:07;4.45;;;1.55;;
56429;SDS011;42332;52.136;20.666;2023-07-31T11:15:33;4.68;;;1.40;;
56429;SDS011;42332;52.136;20.666;2023-07-31T11:17:59;6.63;;;1.20;;
56429;SDS011;42332;52.136;20.666;2023-07-31T11:20:29;5.10;;;1.67;;
56429;SDS011;42332;52.136;20.666;2023-07-31T11:22:57;4.88;;;1.23;;
56429;SDS011;42332;52.136;20.666;2023-07-31T11:25:24;3.60;;;1.30;;
56429;SDS011;42332;52.136;20.666;2023-07-31T11:27:49;5.32;;;2.05;;
56429;SDS011;42332;52.136;20.666;2023-07-31T11:30:18;3.78;;;1.20;;
56429;SDS011;42332;52.136;20.666;2023-07-31T11:32:45;5.28;;;1.80;;
56429;SDS011;42332;52.136;20.666;2023-07-31T11:35:13;4.10;;;1.40;;
56429;SDS011;42332;52.136;20.666;2023-07-31T11:37:39;4.82;;;1.20;;
56429;SDS011;42332;52.136;20.666;2023-07-31T11:40:08;4.78;;;1.58;;
56429;SDS011;42332;52.136;20.666;2023-07-31T11:42:34;6.97;;;1.48;;
56429;SDS011;42332;52.136;20.666;2023-07-31T11:45:01;5.53;;;1.40;;
56429;SDS011;42332;52.136;20.666;2023-07-31T11:47:32;4.25;;;1.42;;
56429;SDS011;42332;52.136;20.666;2023-07-31T11:49:59;4.57;;;1.60;;
56429;SDS011;42332;52.136;20.666;2023-07-31T11:52:24;8.60;;;1.42;;
56429;SDS011;42332;52.136;20.666;2023-07-31T11:54:50;4.97;;;1.60;;
56429;SDS011;42332;52.136;20.666;2023-07-31T11:57:16;4.25;;;1.05;;
56429;SDS011;42332;52.136;20.666;2023-07-31T11:59:41;5.60;;;1.40;;
56429;SDS011;42332;52.136;20.666;2023-07-31T12:02:07;7.07;;;1.23;;
56429;SDS011;42332;52.136;20.666;2023-07-31T12:04:32;6.63;;;1.48;;
56429;SDS011;42332;52.136;20.666;2023-07-31T12:06:59;4.28;;;1.73;;
56429;SDS011;42332;52.136;20.666;2023-07-31T12:09:25;4.95;;;1.42;;
56429;SDS011;42332;52.136;20.666;2023-07-31T12:11:51;6.82;;;1.30;;
56429;SDS011;42332;52.136;20.666;2023-07-31T12:14:29;3.08;;;1.17;;
56429;SDS011;42332;52.136;20.666;2023-07-31T12:16:58;7.63;;;1.33;;
56429;SDS011;42332;52.136;20.666;2023-07-31T12:19:26;3.97;;;1.17;;
56429;SDS011;42332;52.136;20.666;2023-07-31T12:21:55;4.18;;;1.25;;
56429;SDS011;42332;52.136;20.666;2023-07-31T12:24:20;8.82;;;1.40;;
56429;SDS011;42332;52.136;20.666;2023-07-31T12:26:46;3.50;;;0.90;;
56429;SDS011;42332;52.136;20.666;2023-07-31T12:29:11;5.88;;;1.17;;
56429;SDS011;42332;52.136;20.666;2023-07-31T12:31:37;4.63;;;1.30;;
56429;SDS011;42332;52.136;20.666;2023-07-31T12:34:02;4.85;;;1.90;;
56429;SDS011;42332;52.136;20.666;2023-07-31T12:36:28;5.20;;;1.15;;
56429;SDS011;42332;52.136;20.666;2023-07-31T12:38:55;4.35;;;0.93;;
56429;SDS011;42332;52.136;20.666;2023-07-31T12:41:23;7.88;;;1.20;;
56429;SDS011;42332;52.136;20.666;2023-07-31T12:43:49;3.88;;;1.00;;
56429;SDS011;42332;52.136;20.666;2023-07-31T12:46:14;6.78;;;1.35;;
56429;SDS011;42332;52.136;20.666;2023-07-31T12:48:40;4.97;;;1.10;;
56429;SDS011;42332;52.136;20.666;2023-07-31T12:51:05;8.07;;;1.10;;
56429;SDS011;42332;52.136;20.666;2023-07-31T12:53:34;6.07;;;1.13;;
56429;SDS011;42332;52.136;20.666;2023-07-31T12:55:59;3.72;;;1.13;;
56429;SDS011;42332;52.136;20.666;2023-07-31T12:58:25;4.85;;;0.98;;
56429;SDS011;42332;52.136;20.666;2023-07-31T13:00:50;5.35;;;1.17;;
56429;SDS011;42332;52.136;20.666;2023-07-31T13:03:16;5.15;;;1.00;;
56429;SDS011;42332;52.136;20.666;2023-07-31T13:05:41;6.20;;;1.55;;
56429;SDS011;42332;52.136;20.666;2023-07-31T13:08:06;4.55;;;1.10;;
56429;SDS011;42332;52.136;20.666;2023-07-31T13:10:32;9.27;;;1.45;;
56429;SDS011;42332;52.136;20.666;2023-07-31T13:12:57;3.40;;;1.10;;
56429;SDS011;42332;52.136;20.666;2023-07-31T13:15:23;5.65;;;1.23;;
56429;SDS011;42332;52.136;20.666;2023-07-31T13:17:48;4.85;;;1.35;;
56429;SDS011;42332;52.136;20.666;2023-07-31T13:20:14;6.38;;;1.60;;
56429;SDS011;42332;52.136;20.666;2023-07-31T13:22:39;5.22;;;1.20;;
56429;SDS011;42332;52.136;20.666;2023-07-31T13:25:05;5.22;;;1.17;;
56429;SDS011;42332;52.136;20.666;2023-07-31T13:27:31;3.55;;;1.20;;
56429;SDS011;42332;52.136;20.666;2023-07-31T13:29:56;4.07;;;1.20;;
56429;SDS011;42332;52.136;20.666;2023-07-31T13:32:21;6.03;;;1.23;;
56429;SDS011;42332;52.136;20.666;2023-07-31T13:34:47;7.13;;;1.67;;
56429;SDS011;42332;52.136;20.666;2023-07-31T13:37:13;9.95;;;1.67;;
56429;SDS011;42332;52.136;20.666;2023-07-31T13:39:39;2.97;;;1.13;;
56429;SDS011;42332;52.136;20.666;2023-07-31T13:42:05;5.70;;;1.45;;
56429;SDS011;42332;52.136;20.666;2023-07-31T13:44:34;6.22;;;1.80;;
56429;SDS011;42332;52.136;20.666;2023-07-31T13:47:00;6.97;;;1.52;;
56429;SDS011;42332;52.136;20.666;2023-07-31T13:49:25;5.95;;;2.03;;
56429;SDS011;42332;52.136;20.666;2023-07-31T13:51:51;4.82;;;1.42;;
56429;SDS011;42332;52.136;20.666;2023-07-31T13:54:16;5.18;;;1.40;;
56429;SDS011;42332;52.136;20.666;2023-07-31T13:56:42;5.72;;;1.70;;
56429;SDS011;42332;52.136;20.666;2023-07-31T13:59:08;4.38;;;1.30;;
56429;SDS011;42332;52.136;20.666;2023-07-31T14:01:33;6.45;;;1.73;;
56429;SDS011;42332;52.136;20.666;2023-07-31T14:03:58;7.00;;;1.70;;
56429;SDS011;42332;52.136;20.666;2023-07-31T14:06:24;3.53;;;1.15;;
56429;SDS011;42332;52.136;20.666;2023-07-31T14:08:49;9.18;;;1.35;;
56429;SDS011;42332;52.136;20.666;2023-07-31T14:11:14;9.50;;;2.00;;
56429;SDS011;42332;52.136;20.666;2023-07-31T14:13:39;5.75;;;1.33;;
56429;SDS011;42332;52.136;20.666;2023-07-31T14:16:05;7.38;;;1.30;;
56429;SDS011;42332;52.136;20.666;2023-07-31T14:18:31;4.00;;;1.35;;
56429;SDS011;42332;52.136;20.666;2023-07-31T14:20:56;3.13;;;1.15;;
56429;SDS011;42332;52.136;20.666;2023-07-31T14:23:22;5.07;;;1.30;;
56429;SDS011;42332;52.136;20.666;2023-07-31T14:25:47;4.22;;;1.25;;
56429;SDS011;42332;52.136;20.666;2023-07-31T14:28:13;5.50;;;1.30;;
56429;SDS011;42332;52.136;20.666;2023-07-31T14:30:38;8.88;;;1.33;;
56429;SDS011;42332;52.136;20.666;2023-07-31T14:33:03;2.70;;;1.08;;
56429;SDS011;42332;52.136;20.666;2023-07-31T14:35:29;4.50;;;1.52;;
56429;SDS011;42332;52.136;20.666;2023-07-31T14:37:54;9.80;;;1.52;;